Página principal
METAR-TAF:

METAR-TAF

Aeroportos :

Aeroporto Humberto Delgado

Lisboa, Portugal

latitude: 38-46N, longitude: 009-08W, altura: 114 m

Observação actual do tempo

O boletim foi feito há 13 minutos, às 07:30 UTC
Vento 8 kt de nordeste
Temperatura 5°C
Humidade 81%
Pressão 1025 hPa
Visibilidade 10 km ou mais
sem nuvens abaixo de 1500 metros e sem cumulonimbus

METAR: LPPT 220730Z 05008KT CAVOK 05/02 Q1025

Hora: 07:43 (07:43 UTC)

Previsão

O boletim foi feito há 2 horas e 43 minutos, às 05:00 UTC
Previsão válida de 22 às 06 UTC a 23 às 12 UTC
Vento 8 kt de nordeste
Visibilidade 10 km ou mais
sem nuvens abaixo de 1500 metros e sem cumulonimbus

TAF: LPPT 220500Z 2206/2312 05008KT CAVOK

Observações e previsões do tempo de mais de 4000 aeroportos (mensagens METAR e TAF).

As estações disponíveis são os pontos amarelos e vermelhos sobre o mapa.

Mova o rato sobre o mapa para ver o nome da estação.

Depois clique no ponto para visualizar as observações e previsões meteorológicas.

Para alterar o mapa : clique nos botões verdes com uma cruz preta para aumentar o zoom; no botão verde com uma pitada de zoom; ou nas setas verdes para mapas adjacentes.


METAR-TAF: